Time;durP1;ratioP1;P1;durP2;ratioP2;P2;SDS_P1;SDS_P2;PMS_P1;PMS_P2;Temp;Humidity;BMP_temperature;BMP_pressure;BME280_temperature;BME280_humidity;BME280_pressure;Samples;Min_cycle;Max_cycle;Signal;HPM_P1;HPM_P2
2024/01/04 00:00:04;;;;;;;2.78;0.65;;;12.50;99.90;;;;;;5094579;28;20028;-44
2024/01/04 00:02:30;;;;;;;2.50;0.68;;;12.50;99.90;;;;;;5094613;28;20020;-44
2024/01/04 00:04:57;;;;;;;3.05;0.95;;;12.50;99.90;;;;;;5095168;28;20396;-43
2024/01/04 00:07:23;;;;;;;1.70;0.60;;;12.50;99.90;;;;;;5094327;28;20028;-44
2024/01/04 00:09:51;;;;;;;3.28;0.55;;;12.50;99.90;;;;;;5094752;28;20035;-44
2024/01/04 00:12:17;;;;;;;2.47;0.68;;;12.50;99.90;;;;;;5095023;28;20286;-42
2024/01/04 00:14:42;;;;;;;2.13;0.43;;;12.50;99.90;;;;;;5094184;28;20035;-42
2024/01/04 00:17:08;;;;;;;1.92;0.70;;;12.50;99.90;;;;;;5094905;28;20024;-43
2024/01/04 00:19:34;;;;;;;3.00;0.70;;;12.40;99.90;;;;;;5095586;28;20485;-41
2024/01/04 00:21:59;;;;;;;3.22;0.77;;;12.50;99.90;;;;;;5094031;28;20031;-42
2024/01/04 00:24:25;;;;;;;8.13;0.82;;;12.40;99.90;;;;;;5093607;28;20028;-43
2024/01/04 00:26:50;;;;;;;2.80;0.70;;;12.40;99.90;;;;;;5093564;28;20068;-41
2024/01/04 00:29:16;;;;;;;2.60;0.60;;;12.40;99.90;;;;;;5093550;28;20070;-42
2024/01/04 00:31:42;;;;;;;2.03;0.77;;;12.40;99.90;;;;;;5093523;28;20036;-42
2024/01/04 00:34:08;;;;;;;1.80;0.73;;;12.40;99.90;;;;;;5093594;28;20047;-43
2024/01/04 00:36:34;;;;;;;2.05;0.70;;;12.40;99.90;;;;;;5093397;28;20031;-44
2024/01/04 00:38:59;;;;;;;7.05;0.63;;;12.40;99.90;;;;;;5093347;28;20098;-43
2024/01/04 00:41:25;;;;;;;2.35;0.57;;;12.40;99.90;;;;;;5093412;28;20024;-43
2024/01/04 00:43:51;;;;;;;2.60;0.60;;;12.40;99.90;;;;;;5093430;28;20036;-44
2024/01/04 00:46:16;;;;;;;1.65;0.60;;;12.40;99.90;;;;;;5093306;28;20442;-43
2024/01/04 00:48:42;;;;;;;3.00;0.65;;;12.40;99.90;;;;;;5093133;28;20035;-43
2024/01/04 00:51:08;;;;;;;6.18;0.68;;;12.40;99.90;;;;;;5093138;28;20032;-43
2024/01/04 00:53:34;;;;;;;2.50;0.65;;;12.40;99.90;;;;;;5093039;28;20020;-43
2024/01/04 00:56:00;;;;;;;3.63;0.63;;;12.40;99.90;;;;;;5093107;28;20100;-43
2024/01/04 00:58:25;;;;;;;3.33;0.70;;;12.40;99.90;;;;;;5093078;28;20240;-42
2024/01/04 01:00:51;;;;;;;1.77;0.60;;;12.40;99.90;;;;;;5093061;28;20028;-43
2024/01/04 01:03:16;;;;;;;2.25;0.70;;;12.40;99.90;;;;;;5092906;28;20496;-43
2024/01/04 01:05:42;;;;;;;1.33;0.60;;;12.40;99.90;;;;;;5092959;28;20046;-43
2024/01/04 01:08:08;;;;;;;2.50;0.63;;;12.40;99.90;;;;;;5091406;28;20457;-43
2024/01/04 01:10:34;;;;;;;2.72;0.50;;;12.40;99.90;;;;;;5092864;28;20362;-43
2024/01/04 01:13:00;;;;;;;1.73;0.52;;;12.40;99.90;;;;;;5092845;28;20469;-43
2024/01/04 01:15:26;;;;;;;1.88;0.60;;;12.40;99.90;;;;;;5095372;28;20484;-43
2024/01/04 01:17:51;;;;;;;1.50;0.52;;;12.40;99.90;;;;;;5093897;28;20103;-43
2024/01/04 01:20:17;;;;;;;2.22;0.40;;;12.40;99.90;;;;;;5093368;28;20116;-44
2024/01/04 01:22:42;;;;;;;1.88;0.68;;;12.40;99.90;;;;;;5093634;28;20020;-43
2024/01/04 01:25:08;;;;;;;2.10;0.55;;;12.40;99.90;;;;;;5093390;28;20035;-43
2024/01/04 01:27:34;;;;;;;1.80;0.50;;;12.40;99.90;;;;;;5092489;28;20084;-41
2024/01/04 01:30:00;;;;;;;2.00;0.50;;;12.30;99.90;;;;;;5092503;28;20017;-43
2024/01/04 01:32:25;;;;;;;1.65;0.60;;;12.30;99.90;;;;;;5093218;28;20024;-43
2024/01/04 01:34:52;;;;;;;3.15;0.60;;;12.30;99.90;;;;;;5092325;28;20035;-44
2024/01/04 01:37:17;;;;;;;3.05;0.60;;;12.30;99.90;;;;;;5092333;28;20020;-41
2024/01/04 01:39:43;;;;;;;1.33;0.45;;;12.30;99.90;;;;;;5093307;28;20066;-44
2024/01/04 01:42:09;;;;;;;1.40;0.50;;;12.30;99.90;;;;;;5093601;28;20389;-43
2024/01/04 01:44:34;;;;;;;1.17;0.50;;;12.30;99.90;;;;;;5092839;28;20024;-42
2024/01/04 01:47:00;;;;;;;1.25;0.47;;;12.30;99.90;;;;;;5092836;28;20693;-42
2024/01/04 01:49:26;;;;;;;1.85;0.57;;;12.30;99.90;;;;;;5093607;28;20027;-43
2024/01/04 01:51:53;;;;;;;2.75;0.60;;;12.30;99.90;;;;;;5092865;28;20028;-43
2024/01/04 01:54:19;;;;;;;1.52;0.60;;;12.30;99.90;;;;;;5092075;28;20493;-43
2024/01/04 01:56:45;;;;;;;1.60;0.50;;;12.30;99.90;;;;;;5092960;28;20020;-44
2024/01/04 01:59:12;;;;;;;0.98;0.40;;;12.30;99.90;;;;;;5091870;28;20020;-42
2024/01/04 02:01:37;;;;;;;1.65;0.60;;;12.30;99.90;;;;;;5091841;28;20028;-44
2024/01/04 02:04:03;;;;;;;1.67;0.40;;;12.30;99.90;;;;;;5092598;28;20190;-44
2024/01/04 02:06:29;;;;;;;0.80;0.32;;;12.30;99.90;;;;;;5092379;28;20497;-44
2024/01/04 02:08:55;;;;;;;2.05;0.68;;;12.30;99.90;;;;;;5091713;28;20028;-43
2024/01/04 02:11:22;;;;;;;0.70;0.40;;;12.30;99.90;;;;;;5092552;28;20028;-43
2024/01/04 02:13:48;;;;;;;3.40;0.70;;;12.30;99.90;;;;;;5092174;28;20024;-43
2024/01/04 02:16:14;;;;;;;0.60;0.30;;;12.30;99.90;;;;;;5092925;28;20141;-43
2024/01/04 02:18:40;;;;;;;1.60;0.77;;;12.30;99.90;;;;;;5092347;28;20499;-44
2024/01/04 02:21:06;;;;;;;0.50;0.35;;;12.30;99.90;;;;;;5090494;28;20055;-44
2024/01/04 02:23:32;;;;;;;3.92;0.32;;;12.30;99.90;;;;;;5091913;28;20401;-41
2024/01/04 02:25:57;;;;;;;1.70;0.50;;;12.30;99.90;;;;;;5091886;28;20024;-44
2024/01/04 02:28:23;;;;;;;0.82;0.30;;;12.30;99.90;;;;;;5091702;28;20041;-40
2024/01/04 02:30:48;;;;;;;1.35;0.40;;;12.30;99.90;;;;;;5093170;28;20089;-44
2024/01/04 02:33:14;;;;;;;1.15;0.40;;;12.30;99.90;;;;;;5092235;28;20055;-44
2024/01/04 02:35:39;;;;;;;0.95;0.40;;;12.30;99.90;;;;;;5092460;28;20325;-44
2024/01/04 02:38:05;;;;;;;1.75;0.50;;;12.30;99.90;;;;;;5093485;28;20032;-43
2024/01/04 02:40:34;;;;;;;1.00;0.47;;;12.30;99.90;;;;;;5093028;28;20035;-44
2024/01/04 02:42:59;;;;;;;0.65;0.35;;;12.20;99.90;;;;;;5092447;28;20032;-44
2024/01/04 02:45:25;;;;;;;0.70;0.30;;;12.20;99.90;;;;;;5090856;28;20024;-44
2024/01/04 02:47:51;;;;;;;1.40;0.40;;;12.30;99.90;;;;;;5091221;28;20129;-44
2024/01/04 02:50:18;;;;;;;0.95;0.30;;;12.20;99.90;;;;;;5092647;28;20024;-44
2024/01/04 02:52:44;;;;;;;1.23;0.40;;;12.30;99.90;;;;;;5091249;28;20016;-43
2024/01/04 02:55:10;;;;;;;1.23;0.45;;;12.20;99.90;;;;;;5091692;28;20035;-43
2024/01/04 02:57:35;;;;;;;0.52;0.30;;;12.20;99.90;;;;;;5091383;28;20028;-43
2024/01/04 03:00:01;;;;;;;1.13;0.55;;;12.20;99.90;;;;;;5091346;28;20032;-43
2024/01/04 03:02:26;;;;;;;1.17;0.43;;;12.20;99.90;;;;;;5091466;28;20107;-43
2024/01/04 03:04:52;;;;;;;0.40;0.22;;;12.20;99.90;;;;;;5091211;28;20029;-44
2024/01/04 03:07:18;;;;;;;0.65;0.40;;;12.20;99.90;;;;;;5091664;28;20477;-44
2024/01/04 03:09:43;;;;;;;0.55;0.20;;;12.20;99.90;;;;;;5090888;28;20024;-44
2024/01/04 03:12:09;;;;;;;0.80;0.20;;;12.20;99.90;;;;;;5092006;28;20024;-44
2024/01/04 03:14:35;;;;;;;0.50;0.30;;;12.20;99.90;;;;;;5092189;28;20029;-44
2024/01/04 03:17:00;;;;;;;0.88;0.20;;;12.30;99.90;;;;;;5091518;28;20463;-44
2024/01/04 03:19:28;;;;;;;0.60;0.25;;;12.20;99.90;;;;;;5091447;28;20039;-44
2024/01/04 03:21:55;;;;;;;0.55;0.28;;;12.20;99.90;;;;;;5092808;28;20032;-44
2024/01/04 03:24:20;;;;;;;0.90;0.28;;;12.20;99.90;;;;;;5091085;28;20440;-44
2024/01/04 03:26:46;;;;;;;0.80;0.30;;;12.20;99.90;;;;;;5091947;28;20058;-43
2024/01/04 03:29:11;;;;;;;0.95;0.30;;;12.20;99.90;;;;;;5092539;28;20028;-42
2024/01/04 03:31:37;;;;;;;0.52;0.17;;;12.20;99.90;;;;;;5091763;28;20358;-43
2024/01/04 03:34:02;;;;;;;0.82;0.28;;;12.20;99.90;;;;;;5092115;28;20107;-44
2024/01/04 03:36:28;;;;;;;0.52;0.20;;;12.20;99.90;;;;;;5092074;28;20017;-43
2024/01/04 03:38:55;;;;;;;0.60;0.28;;;12.20;99.90;;;;;;5092229;28;20486;-43
2024/01/04 03:41:21;;;;;;;1.98;0.30;;;12.20;99.90;;;;;;5092227;28;20039;-44
2024/01/04 03:43:46;;;;;;;0.40;0.25;;;12.20;99.90;;;;;;5090784;28;20028;-43
2024/01/04 03:46:13;;;;;;;0.40;0.20;;;12.20;99.90;;;;;;5091478;28;20109;-44
2024/01/04 03:48:38;;;;;;;0.90;0.40;;;12.20;99.90;;;;;;5091702;28;20150;-44
2024/01/04 03:51:04;;;;;;;0.30;0.20;;;12.20;99.90;;;;;;5091881;28;20115;-44
2024/01/04 03:53:30;;;;;;;0.80;0.30;;;12.20;99.90;;;;;;5091073;28;20031;-43
2024/01/04 03:55:55;;;;;;;1.58;0.20;;;12.20;99.90;;;;;;5092574;28;20083;-44
2024/01/04 03:58:21;;;;;;;0.82;0.50;;;12.20;99.90;;;;;;5096167;28;20028;-44
2024/01/04 04:00:47;;;;;;;0.32;0.20;;;12.20;99.90;;;;;;5094531;28;20024;-44
2024/01/04 04:03:17;;;;;;;1.73;0.40;;;12.20;99.90;;;;;;5094998;28;20385;-43
2024/01/04 04:05:44;;;;;;;0.40;0.20;;;12.20;99.90;;;;;;5094886;28;20038;-44
2024/01/04 04:08:10;;;;;;;0.55;0.30;;;12.20;99.90;;;;;;5095571;28;20076;-43
2024/01/04 04:10:35;;;;;;;0.30;0.20;;;12.20;99.90;;;;;;5094209;28;20103;-43
2024/01/04 04:13:01;;;;;;;1.00;0.25;;;12.20;99.90;;;;;;5093949;28;20520;-44
2024/01/04 04:15:26;;;;;;;0.68;0.20;;;12.20;99.90;;;;;;5094672;28;20024;-42
2024/01/04 04:17:55;;;;;;;0.63;0.20;;;12.20;99.90;;;;;;5093598;28;20224;-42
2024/01/04 04:20:22;;;;;;;0.57;0.30;;;12.20;99.90;;;;;;5095067;28;20016;-41
2024/01/04 04:22:47;;;;;;;0.68;0.30;;;12.20;99.90;;;;;;5094745;28;20363;-44
2024/01/04 04:25:13;;;;;;;0.68;0.30;;;12.20;99.90;;;;;;5094658;28;20043;-44
2024/01/04 04:27:39;;;;;;;0.57;0.20;;;12.20;99.90;;;;;;5093803;28;20031;-44
2024/01/04 04:30:05;;;;;;;0.52;0.40;;;12.10;99.90;;;;;;5094942;28;20035;-44
2024/01/04 04:32:31;;;;;;;0.40;0.30;;;12.20;99.90;;;;;;5095104;28;20033;-43
2024/01/04 04:34:57;;;;;;;0.95;0.20;;;12.10;99.90;;;;;;5094506;28;20039;-44
2024/01/04 04:37:22;;;;;;;0.85;0.30;;;12.20;99.90;;;;;;5094778;28;20497;-44
2024/01/04 04:39:48;;;;;;;0.73;0.20;;;12.10;99.90;;;;;;5093539;28;20020;-44
2024/01/04 04:42:14;;;;;;;0.75;0.20;;;12.10;99.90;;;;;;5095183;28;20024;-43
2024/01/04 04:44:39;;;;;;;1.33;0.35;;;12.10;99.90;;;;;;5093994;28;20463;-44
2024/01/04 04:47:05;;;;;;;0.38;0.15;;;12.10;99.90;;;;;;5094290;28;20027;-42
2024/01/04 04:49:30;;;;;;;0.45;0.20;;;12.10;99.90;;;;;;5094703;28;20384;-44
2024/01/04 04:51:57;;;;;;;1.13;0.20;;;12.10;99.90;;;;;;5093394;28;20040;-43
2024/01/04 04:54:24;;;;;;;0.85;0.30;;;12.10;99.90;;;;;;5094047;28;20022;-41
2024/01/04 04:56:50;;;;;;;0.85;0.20;;;12.10;99.90;;;;;;5093265;28;20032;-44
2024/01/04 04:59:16;;;;;;;0.80;0.20;;;12.10;99.90;;;;;;5093342;28;20020;-44
2024/01/04 05:01:43;;;;;;;1.52;0.30;;;12.20;99.90;;;;;;5093049;28;20115;-42
2024/01/04 05:04:09;;;;;;;0.73;0.28;;;12.10;99.90;;;;;;5093655;28;20035;-42
2024/01/04 05:06:34;;;;;;;0.90;0.20;;;12.10;99.90;;;;;;5093416;28;20020;-43
2024/01/04 05:09:00;;;;;;;1.00;0.43;;;12.10;99.90;;;;;;5093708;28;20032;-43
2024/01/04 05:11:25;;;;;;;1.23;0.40;;;12.20;99.90;;;;;;5093822;28;20030;-44
2024/01/04 05:13:51;;;;;;;2.28;0.25;;;12.20;99.90;;;;;;5094092;28;20039;-44
2024/01/04 05:16:19;;;;;;;0.70;0.30;;;12.20;99.90;;;;;;5093597;28;20032;-42
2024/01/04 05:18:44;;;;;;;1.42;0.35;;;12.30;99.90;;;;;;5093439;28;20012;-43
2024/01/04 05:21:10;;;;;;;0.28;0.13;;;12.30;99.90;;;;;;5092693;28;20032;-43
2024/01/04 05:23:35;;;;;;;1.15;0.30;;;12.30;99.90;;;;;;5092487;28;20040;-43
2024/01/04 05:26:02;;;;;;;1.05;0.30;;;12.30;99.90;;;;;;5092376;28;20038;-44
2024/01/04 05:28:28;;;;;;;1.17;0.45;;;12.40;99.90;;;;;;5093242;28;20504;-43
2024/01/04 05:30:53;;;;;;;1.17;0.40;;;12.40;99.90;;;;;;5094812;28;20028;-44
2024/01/04 05:33:19;;;;;;;0.57;0.30;;;12.40;99.90;;;;;;5092431;28;20020;-42
2024/01/04 05:35:45;;;;;;;0.52;0.30;;;12.40;99.90;;;;;;5092392;28;20038;-43
2024/01/04 05:38:11;;;;;;;1.15;0.50;;;12.40;99.90;;;;;;5092258;28;20024;-43
2024/01/04 05:40:37;;;;;;;1.15;0.30;;;12.40;99.90;;;;;;5092160;28;20047;-42
2024/01/04 05:43:03;;;;;;;0.98;0.38;;;12.50;99.90;;;;;;5092477;28;20401;-44
2024/01/04 05:45:28;;;;;;;2.03;0.30;;;12.50;99.90;;;;;;5092266;28;20371;-43
2024/01/04 05:47:54;;;;;;;0.68;0.28;;;12.50;99.90;;;;;;5092075;28;20067;-44
2024/01/04 05:50:19;;;;;;;0.50;0.20;;;12.50;99.90;;;;;;5092202;28;20103;-43
2024/01/04 05:52:45;;;;;;;0.63;0.20;;;12.50;99.90;;;;;;5090694;28;20485;-44
2024/01/04 05:55:11;;;;;;;1.58;0.30;;;12.50;99.90;;;;;;5091887;28;20477;-43
2024/01/04 05:57:36;;;;;;;0.93;0.30;;;12.50;99.90;;;;;;5092000;28;20091;-43
2024/01/04 06:00:02;;;;;;;1.98;0.32;;;12.50;99.90;;;;;;5091939;28;20020;-43
2024/01/04 06:02:28;;;;;;;1.23;0.30;;;12.50;99.90;;;;;;5091874;28;20501;-43
2024/01/04 06:04:54;;;;;;;1.90;0.40;;;12.50;99.90;;;;;;5091913;28;20032;-43
2024/01/04 06:07:21;;;;;;;0.30;0.28;;;12.50;99.90;;;;;;5091809;28;20031;-43
2024/01/04 06:09:47;;;;;;;0.50;0.28;;;12.50;99.90;;;;;;5091544;28;20017;-43
2024/01/04 06:12:12;;;;;;;1.20;0.22;;;12.50;99.90;;;;;;5091801;28;20154;-43
2024/01/04 06:14:38;;;;;;;0.63;0.20;;;12.50;99.90;;;;;;5091818;28;20016;-44
2024/01/04 06:17:03;;;;;;;0.60;0.22;;;12.50;99.90;;;;;;5091829;28;20040;-44
2024/01/04 06:19:29;;;;;;;1.30;0.50;;;12.50;99.90;;;;;;5092263;28;20457;-42
2024/01/04 06:21:55;;;;;;;1.30;0.40;;;12.50;99.90;;;;;;5092794;28;20031;-44
2024/01/04 06:24:20;;;;;;;0.65;0.40;;;12.50;99.90;;;;;;5092141;28;20119;-43
2024/01/04 06:26:46;;;;;;;0.73;0.32;;;12.50;99.90;;;;;;5093383;28;20035;-43
2024/01/04 06:29:12;;;;;;;0.88;0.40;;;12.50;99.90;;;;;;5091648;28;20020;-44
2024/01/04 06:31:37;;;;;;;0.98;0.30;;;12.50;99.90;;;;;;5092214;28;20456;-44
2024/01/04 06:34:03;;;;;;;1.70;0.45;;;12.50;99.90;;;;;;5091978;28;20024;-43
2024/01/04 06:36:29;;;;;;;1.08;0.38;;;12.50;99.90;;;;;;5091256;28;20024;-44
2024/01/04 06:38:54;;;;;;;2.03;0.40;;;12.50;99.90;;;;;;5092167;28;20469;-43
2024/01/04 06:41:20;;;;;;;2.88;0.70;;;12.50;99.90;;;;;;5092166;28;20024;-42
2024/01/04 06:43:46;;;;;;;1.27;0.40;;;12.50;99.90;;;;;;5091700;28;20024;-44
2024/01/04 06:46:14;;;;;;;3.85;0.43;;;12.50;99.90;;;;;;5091930;28;20434;-43
2024/01/04 06:48:39;;;;;;;1.75;0.55;;;12.40;99.90;;;;;;5092497;28;20102;-44
2024/01/04 06:51:06;;;;;;;1.52;0.50;;;12.40;99.90;;;;;;5093176;28;20429;-44
2024/01/04 06:53:31;;;;;;;1.65;0.40;;;12.40;99.90;;;;;;5091967;28;20161;-42
2024/01/04 06:55:57;;;;;;;2.15;0.47;;;12.40;99.90;;;;;;5091498;28;20106;-44
2024/01/04 06:58:23;;;;;;;1.92;0.43;;;12.40;99.90;;;;;;5091231;28;20097;-43
2024/01/04 07:00:48;;;;;;;2.55;0.60;;;12.40;99.90;;;;;;5092222;28;20032;-44
2024/01/04 07:03:14;;;;;;;1.98;0.57;;;12.40;99.90;;;;;;5091810;28;20032;-44
2024/01/04 07:05:39;;;;;;;1.40;0.47;;;12.40;99.90;;;;;;5091668;28;20097;-43
2024/01/04 07:08:05;;;;;;;1.83;0.60;;;12.40;99.90;;;;;;5092175;28;20020;-44
2024/01/04 07:10:31;;;;;;;1.27;0.40;;;12.40;99.90;;;;;;5091023;28;20036;-44
2024/01/04 07:12:56;;;;;;;1.73;0.43;;;12.40;99.90;;;;;;5091222;28;20024;-43
2024/01/04 07:15:22;;;;;;;2.58;0.52;;;12.40;99.90;;;;;;5091847;28;20024;-44
2024/01/04 07:17:48;;;;;;;2.47;0.57;;;12.40;99.90;;;;;;5090875;28;20039;-44
2024/01/04 07:20:13;;;;;;;2.33;0.60;;;12.40;99.90;;;;;;5090966;28;20048;-44
2024/01/04 07:22:39;;;;;;;1.02;0.40;;;12.40;99.90;;;;;;5091753;28;20102;-44
2024/01/04 07:25:05;;;;;;;1.42;0.45;;;12.30;99.90;;;;;;5090950;28;20038;-43
2024/01/04 07:27:31;;;;;;;1.92;0.35;;;12.30;99.90;;;;;;5092252;28;20488;-43
2024/01/04 07:29:57;;;;;;;1.77;0.50;;;12.30;99.90;;;;;;5091836;28;20055;-44
2024/01/04 07:32:23;;;;;;;1.05;0.40;;;12.30;99.90;;;;;;5094751;28;20493;-43
2024/01/04 07:34:48;;;;;;;1.85;0.32;;;12.30;99.90;;;;;;5095486;28;20036;-44
2024/01/04 07:37:14;;;;;;;1.10;0.50;;;12.30;99.90;;;;;;5095754;28;20028;-43
2024/01/04 07:39:41;;;;;;;1.15;0.40;;;12.30;99.90;;;;;;5095558;28;20016;-44
2024/01/04 07:42:08;;;;;;;1.25;0.50;;;12.30;99.90;;;;;;5095193;28;20016;-43
2024/01/04 07:44:34;;;;;;;0.95;0.50;;;12.30;99.90;;;;;;5095784;28;20513;-42
2024/01/04 07:46:59;;;;;;;1.02;0.38;;;12.30;99.90;;;;;;5095505;28;20055;-44
2024/01/04 07:49:25;;;;;;;1.75;0.50;;;12.30;99.90;;;;;;5094838;28;20478;-44
2024/01/04 07:51:52;;;;;;;2.10;0.60;;;12.30;99.90;;;;;;5094465;28;20032;-44
2024/01/04 07:54:20;;;;;;;1.00;0.50;;;12.30;99.90;;;;;;5094525;28;20045;-43
2024/01/04 07:56:46;;;;;;;1.40;0.50;;;12.30;99.90;;;;;;5095368;28;20059;-43
2024/01/04 07:59:12;;;;;;;1.08;0.50;;;12.30;99.90;;;;;;5095152;28;20439;-44
2024/01/04 08:01:38;;;;;;;1.50;0.45;;;12.30;99.90;;;;;;5095259;28;20020;-44
2024/01/04 08:04:06;;;;;;;1.70;0.43;;;12.30;99.90;;;;;;5095324;28;20107;-43
2024/01/04 08:06:32;;;;;;;1.50;0.60;;;12.30;99.90;;;;;;5095341;28;20318;-44
2024/01/04 08:08:57;;;;;;;1.83;0.57;;;12.40;99.90;;;;;;5094023;28;20394;-43
2024/01/04 08:11:23;;;;;;;0.98;0.30;;;12.40;99.90;;;;;;5095050;28;20405;-44
2024/01/04 08:13:50;;;;;;;1.73;0.60;;;12.50;99.90;;;;;;5095193;28;20382;-42
2024/01/04 08:16:16;;;;;;;2.30;0.50;;;12.50;99.90;;;;;;5095706;28;20032;-42
2024/01/04 08:18:41;;;;;;;1.08;0.50;;;12.50;99.90;;;;;;5095225;28;20017;-44
2024/01/04 08:21:07;;;;;;;2.15;0.82;;;12.60;99.90;;;;;;5094128;28;20401;-43
2024/01/04 08:23:33;;;;;;;1.35;0.47;;;12.70;99.90;;;;;;5093666;28;20093;-44
2024/01/04 08:25:58;;;;;;;1.88;0.50;;;12.80;99.90;;;;;;5093787;28;20399;-44
2024/01/04 08:28:24;;;;;;;1.20;0.50;;;12.90;99.90;;;;;;5093685;28;20036;-44
2024/01/04 08:30:50;;;;;;;1.17;0.60;;;12.90;99.90;;;;;;5093947;28;20111;-43
2024/01/04 08:33:17;;;;;;;1.92;0.70;;;12.90;99.90;;;;;;5094385;28;20357;-44
2024/01/04 08:35:42;;;;;;;1.27;0.68;;;13.00;99.90;;;;;;5094550;28;20016;-43
2024/01/04 08:38:08;;;;;;;1.67;0.70;;;13.00;99.90;;;;;;5094037;28;20019;-43
2024/01/04 08:40:36;;;;;;;1.15;0.50;;;13.10;99.90;;;;;;5094714;28;20020;-44
2024/01/04 08:43:03;;;;;;;1.20;0.50;;;13.10;99.90;;;;;;5093166;28;20032;-44
2024/01/04 08:45:28;;;;;;;1.05;0.47;;;13.20;99.90;;;;;;5093897;28;20026;-43
2024/01/04 08:47:54;;;;;;;1.05;0.47;;;13.20;99.90;;;;;;5093236;28;20024;-44
2024/01/04 08:50:20;;;;;;;0.68;0.40;;;13.30;99.90;;;;;;5093901;28;20046;-43
2024/01/04 08:52:46;;;;;;;1.33;0.60;;;13.30;99.90;;;;;;5094042;28;20020;-43
2024/01/04 08:55:12;;;;;;;2.35;0.40;;;13.30;99.90;;;;;;5093961;28;20054;-43
2024/01/04 08:57:37;;;;;;;1.30;0.50;;;13.40;99.90;;;;;;5094683;28;20473;-40
2024/01/04 09:00:04;;;;;;;1.38;0.70;;;13.50;99.90;;;;;;5095333;28;20466;-44
2024/01/04 09:02:30;;;;;;;1.67;0.73;;;13.50;99.90;;;;;;5093333;28;20028;-44
2024/01/04 09:04:55;;;;;;;2.25;0.70;;;13.60;99.90;;;;;;5093414;28;20024;-43
2024/01/04 09:07:21;;;;;;;0.70;0.50;;;13.60;99.90;;;;;;5092991;28;20165;-43
2024/01/04 09:09:47;;;;;;;1.67;0.50;;;13.70;99.90;;;;;;5092872;28;20027;-44
2024/01/04 09:12:14;;;;;;;1.20;0.50;;;13.80;99.90;;;;;;5093188;28;20055;-43
2024/01/04 09:14:40;;;;;;;1.00;0.60;;;13.80;99.90;;;;;;5093711;28;20016;-44
2024/01/04 09:17:05;;;;;;;1.13;0.60;;;13.90;99.90;;;;;;5093388;28;20050;-44
2024/01/04 09:19:31;;;;;;;1.00;0.45;;;14.00;99.90;;;;;;5094994;28;20103;-44
2024/01/04 09:21:56;;;;;;;0.90;0.43;;;14.10;99.90;;;;;;5094564;28;20131;-43
2024/01/04 09:24:23;;;;;;;1.27;0.60;;;14.20;99.90;;;;;;5092521;28;20047;-44
2024/01/04 09:26:49;;;;;;;1.58;0.60;;;14.30;99.90;;;;;;5092598;28;20111;-43
2024/01/04 09:29:16;;;;;;;1.90;0.60;;;14.40;99.90;;;;;;5093257;28;20562;-44
2024/01/04 09:31:43;;;;;;;1.30;0.50;;;14.50;99.90;;;;;;5094762;28;20028;-41
2024/01/04 09:34:08;;;;;;;1.25;0.57;;;14.60;99.90;;;;;;5092416;28;20081;-43
2024/01/04 09:36:34;;;;;;;1.40;0.45;;;14.70;99.90;;;;;;5092234;28;20443;-44
2024/01/04 09:39:00;;;;;;;1.65;0.60;;;14.70;99.90;;;;;;5092416;28;20109;-44
2024/01/04 09:41:33;;;;;;;0.90;0.40;;;14.80;99.90;;;;;;5095544;28;20482;-44
2024/01/04 09:44:03;;;;;;;0.80;0.40;;;14.90;99.90;;;;;;5094202;28;20542;-44
2024/01/04 09:46:36;;;;;;;1.08;0.50;;;15.00;99.90;;;;;;5093684;28;20020;-44
2024/01/04 09:49:03;;;;;;;0.77;0.52;;;15.10;99.90;;;;;;5092141;28;20028;-43
2024/01/04 09:51:39;;;;;;;0.80;0.45;;;15.20;99.90;;;;;;5092033;28;20028;-43
2024/01/04 09:54:08;;;;;;;0.70;0.40;;;15.20;99.90;;;;;;5091494;28;20020;-43
2024/01/04 09:56:42;;;;;;;1.08;0.50;;;15.20;99.90;;;;;;5092091;28;20024;-44
2024/01/04 09:59:08;;;;;;;1.15;0.50;;;15.30;99.90;;;;;;5091995;28;20027;-43
2024/01/04 10:01:36;;;;;;;1.63;0.80;;;15.40;99.90;;;;;;5092456;28;20040;-43
2024/01/04 10:04:06;;;;;;;0.95;0.40;;;15.40;99.90;;;;;;5094394;28;20489;-44
2024/01/04 10:06:33;;;;;;;0.70;0.40;;;15.40;99.90;;;;;;5091785;28;20580;-44
2024/01/04 10:09:28;;;;;;;1.90;0.70;;;15.50;99.90;;;;;;5091776;28;20095;-43
2024/01/04 10:11:57;;;;;;;0.85;0.50;;;15.50;99.90;;;;;;5091610;28;20051;-43
2024/01/04 10:14:27;;;;;;;1.58;0.50;;;15.50;99.90;;;;;;5091767;28;20024;-43
2024/01/04 10:16:56;;;;;;;0.55;0.40;;;15.50;99.90;;;;;;5091570;28;20032;-44
2024/01/04 10:19:22;;;;;;;1.83;0.47;;;15.50;99.90;;;;;;5091584;28;20070;-44
2024/01/04 10:21:48;;;;;;;1.15;0.45;;;15.60;99.90;;;;;;5091491;28;20069;-43
2024/01/04 10:24:20;;;;;;;1.10;0.43;;;15.60;99.90;;;;;;5091810;28;20115;-44
2024/01/04 10:26:57;;;;;;;0.43;0.30;;;15.60;99.90;;;;;;5091877;28;20378;-42
2024/01/04 10:29:27;;;;;;;0.73;0.30;;;15.60;99.90;;;;;;5092051;28;20016;-44
2024/01/04 10:32:03;;;;;;;1.33;0.70;;;15.60;99.90;;;;;;5092167;28;20031;-44
2024/01/04 10:34:31;;;;;;;1.45;0.50;;;15.60;99.90;;;;;;5091500;28;20170;-44
2024/01/04 10:37:29;;;;;;;0.90;0.55;;;15.70;99.90;;;;;;5091480;28;20777;-44
2024/01/04 10:39:57;;;;;;;1.38;0.60;;;15.70;99.90;;;;;;5090271;28;20036;-43
2024/01/04 10:42:22;;;;;;;1.45;0.50;;;15.70;99.90;;;;;;5092449;28;20036;-44
2024/01/04 10:44:55;;;;;;;1.08;0.57;;;15.80;99.90;;;;;;5091678;28;20024;-44
2024/01/04 10:47:22;;;;;;;1.27;0.47;;;15.70;99.90;;;;;;5091885;28;20028;-42
2024/01/04 10:49:49;;;;;;;3.67;0.73;;;15.80;99.90;;;;;;5091081;28;20437;-44
2024/01/04 10:52:16;;;;;;;1.83;0.52;;;15.80;99.90;;;;;;5092660;28;20066;-43
2024/01/04 10:54:43;;;;;;;2.00;0.63;;;15.80;99.90;;;;;;5092886;28;20024;-44
2024/01/04 10:57:11;;;;;;;1.00;0.50;;;15.80;99.90;;;;;;5092099;28;20028;-43
2024/01/04 10:59:37;;;;;;;1.00;0.50;;;15.80;99.90;;;;;;5092279;28;20024;-44
2024/01/04 11:02:03;;;;;;;1.23;0.57;;;15.90;99.90;;;;;;5092725;28;20032;-44
2024/01/04 11:04:30;;;;;;;0.90;0.50;;;15.90;99.90;;;;;;5091863;28;20038;-44
2024/01/04 11:06:57;;;;;;;1.40;0.60;;;15.90;99.90;;;;;;5096296;28;20035;-44
2024/01/04 11:09:23;;;;;;;1.45;0.60;;;15.90;99.90;;;;;;5096210;28;20402;-44
2024/01/04 11:11:53;;;;;;;0.57;0.22;;;15.90;99.90;;;;;;5095908;28;20047;-43
2024/01/04 11:14:23;;;;;;;1.60;0.60;;;15.90;99.90;;;;;;5095343;28;20058;-41
2024/01/04 11:16:48;;;;;;;1.38;0.40;;;15.90;99.90;;;;;;5096766;28;20030;-44
2024/01/04 11:19:33;;;;;;;1.67;0.50;;;15.90;99.90;;;;;;5095015;28;20024;-43
2024/01/04 11:21:58;;;;;;;;;;;16.00;99.90;;;;;;5095395;28;20036;-43
2024/01/04 11:24:55;;;;;;;1.90;0.68;;;15.90;99.90;;;;;;5094954;28;19915;-43
2024/01/04 11:27:23;;;;;;;1.27;0.55;;;15.90;99.90;;;;;;5094950;28;20120;-42
2024/01/04 11:29:49;;;;;;;1.23;0.50;;;16.00;99.90;;;;;;5094860;28;20036;-43
2024/01/04 11:32:16;;;;;;;1.20;0.60;;;15.90;99.80;;;;;;5095278;28;20086;-44
2024/01/04 11:34:44;;;;;;;1.98;0.65;;;16.00;99.90;;;;;;5095560;28;20047;-44
2024/01/04 11:37:22;;;;;;;1.60;0.60;;;16.00;99.90;;;;;;5094764;28;20482;-44
2024/01/04 11:39:54;;;;;;;1.00;0.60;;;16.00;99.80;;;;;;5094620;28;20478;-43
2024/01/04 11:42:20;;;;;;;1.65;0.40;;;16.10;99.80;;;;;;5094670;28;20024;-43
2024/01/04 11:44:50;;;;;;;1.55;0.82;;;16.10;99.80;;;;;;5094443;28;20028;-44
2024/01/04 11:47:15;;;;;;;1.38;0.43;;;16.10;99.80;;;;;;5094509;28;20077;-44
2024/01/04 11:49:47;;;;;;;0.45;0.30;;;16.10;99.80;;;;;;5094436;28;20024;-43
2024/01/04 11:52:15;;;;;;;0.77;0.40;;;16.30;99.90;;;;;;5094832;28;20328;-43
2024/01/04 11:54:41;;;;;;;1.02;0.47;;;16.30;99.70;;;;;;5095107;28;20027;-44
2024/01/04 11:57:18;;;;;;;1.13;0.60;;;16.40;99.60;;;;;;5096225;28;20020;-43
2024/01/04 11:59:43;;;;;;;1.10;0.60;;;16.40;99.50;;;;;;5094472;28;20024;-43
2024/01/04 12:02:19;;;;;;;1.65;0.60;;;16.50;99.50;;;;;;5094260;28;20032;-42
2024/01/04 12:04:45;;;;;;;1.02;0.40;;;16.50;99.40;;;;;;5094295;28;20020;-43
2024/01/04 12:07:12;;;;;;;1.13;0.47;;;16.60;99.30;;;;;;5094182;28;20024;-44
2024/01/04 12:09:39;;;;;;;2.25;0.60;;;16.60;99.20;;;;;;5093886;28;20055;-44
2024/01/04 12:12:07;;;;;;;2.58;0.52;;;16.60;99.20;;;;;;5093923;28;20028;-43
2024/01/04 12:14:34;;;;;;;1.45;0.50;;;16.60;99.20;;;;;;5094052;28;20089;-43
2024/01/04 12:17:00;;;;;;;1.20;0.40;;;16.60;99.20;;;;;;5093033;28;20020;-44
2024/01/04 12:19:25;;;;;;;1.02;0.40;;;16.60;99.20;;;;;;5093903;28;20031;-43
2024/01/04 12:21:51;;;;;;;1.85;0.63;;;16.60;99.10;;;;;;5094774;28;20406;-44
2024/01/04 12:24:17;;;;;;;1.50;0.60;;;16.60;99.10;;;;;;5095144;28;20505;-44
2024/01/04 12:26:43;;;;;;;0.82;0.45;;;16.60;99.00;;;;;;5095084;28;20032;-44
2024/01/04 12:29:10;;;;;;;1.35;0.47;;;16.70;99.00;;;;;;5095554;28;20478;-44
2024/01/04 12:31:38;;;;;;;1.42;0.60;;;16.70;98.90;;;;;;5094217;28;20032;-42
2024/01/04 12:34:03;;;;;;;0.70;0.40;;;16.70;98.90;;;;;;5094606;28;20492;-44
2024/01/04 12:36:30;;;;;;;1.30;0.50;;;16.80;98.90;;;;;;5093772;28;20103;-44
2024/01/04 12:39:09;;;;;;;0.82;0.40;;;16.80;98.80;;;;;;5095062;28;20020;-44
2024/01/04 12:41:37;;;;;;;0.88;0.47;;;16.90;98.80;;;;;;5095314;28;20397;-44
2024/01/04 12:44:04;;;;;;;1.30;0.52;;;16.80;98.70;;;;;;5094647;28;20478;-44